Festivo — EAEQ — position and weather

sailwx.info

Track history (hours):
 
Tides and Currents Weather Stations Pressure Air Temp Water Temp Dewpoint Dewpoint Depression Visibility Wind Speed Wind Dir Waves Ship Positions

Festivo

Last reported at 2017-Jan-12 11:05 UTC. Time now 2017-Jan-17 19:08 UTC.
Position N 35°60' W 005°11'.

Length 136 m; draft 4.5 m.

Type: Cargo ship. MMSI: 225410000.

Date/timePositionNaut miles runAvg speedWind from/ knotsBaromVisibWave heightAir tempDewpointWater temp
2017-Jan-12 11:05N 35°60' W 005°11'611.4
2017-Jan-12 10:33N 35°56' W 005°17'3 2.8
2017-Jan-12 09:29N 35°54' W 005°19'0 0.0
2017-Jan-12 08:32N 35°54' W 005°19'0 0.0
2017-Jan-12 07:32N 35°54' W 005°19'0 0.0
2017-Jan-12 06:29N 35°54' W 005°19'1 0.6
2017-Jan-12 05:34N 35°54' W 005°19'9 8.7
2017-Jan-12 04:32N 35°60' W 005°11'3 0.1
2017-Jan-10 09:25N 35°58' W 005°14'6 7.1
2017-Jan-10 08:33N 35°54' W 005°19'0 0.0
2017-Jan-10 07:33N 35°54' W 005°19'0 0.0
2017-Jan-10 06:33N 35°54' W 005°19'0 0.3
2017-Jan-10 05:34N 35°54' W 005°19'7 6.6
2017-Jan-10 04:34N 35°58' W 005°13'  
2017-Jan-05 10:33N 35°56' W 005°17'3 2.9
2017-Jan-05 09:33N 35°54' W 005°19'0 0.0
2017-Jan-05 08:32N 35°54' W 005°19'0 0.0
2017-Jan-05 07:33N 35°54' W 005°19'4 4.3
2017-Jan-05 06:33N 35°56' W 005°15'  
Track history (hours):
 
Tides and Currents Weather Stations Pressure Air Temp Water Temp Dewpoint Dewpoint Depression Visibility Wind Speed Wind Dir Waves Ship Positions

Festivo

Last reported at 2017-Jan-12 11:05 UTC. Time now 2017-Jan-17 19:08 UTC.
Position N 35°60' W 005°11'.

Length 136 m; draft 4.5 m.

Type: Cargo ship. MMSI: 225410000.

Date/timePositionNaut miles runAvg speedWind from/ knotsBaromVisibWave heightAir tempDewpointWater temp
2017-Jan-12 11:05N 35°60' W 005°11'611.4
2017-Jan-12 10:33N 35°56' W 005°17'3 2.8
2017-Jan-12 09:29N 35°54' W 005°19'0 0.0
2017-Jan-12 08:32N 35°54' W 005°19'0 0.0
2017-Jan-12 07:32N 35°54' W 005°19'0 0.0
2017-Jan-12 06:29N 35°54' W 005°19'1 0.6
2017-Jan-12 05:34N 35°54' W 005°19'9 8.7
2017-Jan-12 04:32N 35°60' W 005°11'3 0.1
2017-Jan-10 09:25N 35°58' W 005°14'6 7.1
2017-Jan-10 08:33N 35°54' W 005°19'0 0.0
2017-Jan-10 07:33N 35°54' W 005°19'0 0.0
2017-Jan-10 06:33N 35°54' W 005°19'0 0.3
2017-Jan-10 05:34N 35°54' W 005°19'7 6.6
2017-Jan-10 04:34N 35°58' W 005°13'  
2017-Jan-05 10:33N 35°56' W 005°17'3 2.9
2017-Jan-05 09:33N 35°54' W 005°19'0 0.0
2017-Jan-05 08:32N 35°54' W 005°19'0 0.0
2017-Jan-05 07:33N 35°54' W 005°19'4 4.3
2017-Jan-05 06:33N 35°56' W 005°15'  

Dump ship's entire track history